sensor_id;sensor_type;location;lat;lon;timestamp;temperature;humidity
27226;DHT22;14732;51.074;3.788;2023-04-24T00:00:27;11.50;99.90
27226;DHT22;14732;51.074;3.788;2023-04-24T00:02:53;11.40;99.90
27226;DHT22;14732;51.074;3.788;2023-04-24T00:05:22;11.40;99.90
27226;DHT22;14732;51.074;3.788;2023-04-24T00:07:48;11.50;99.90
27226;DHT22;14732;51.074;3.788;2023-04-24T00:10:14;11.40;99.90
27226;DHT22;14732;51.074;3.788;2023-04-24T00:12:40;11.20;99.90
27226;DHT22;14732;51.074;3.788;2023-04-24T00:15:06;11.40;99.90
27226;DHT22;14732;51.074;3.788;2023-04-24T00:17:32;11.20;99.90
27226;DHT22;14732;51.074;3.788;2023-04-24T00:19:57;11.20;99.90
27226;DHT22;14732;51.074;3.788;2023-04-24T00:22:27;11.30;99.90
27226;DHT22;14732;51.074;3.788;2023-04-24T00:24:54;11.30;99.90
27226;DHT22;14732;51.074;3.788;2023-04-24T00:27:20;11.40;99.90
27226;DHT22;14732;51.074;3.788;2023-04-24T00:29:45;11.50;99.90
27226;DHT22;14732;51.074;3.788;2023-04-24T00:32:11;11.60;99.90
27226;DHT22;14732;51.074;3.788;2023-04-24T00:34:37;11.70;99.90
27226;DHT22;14732;51.074;3.788;2023-04-24T00:37:03;11.80;99.90
27226;DHT22;14732;51.074;3.788;2023-04-24T00:39:28;11.60;99.90
27226;DHT22;14732;51.074;3.788;2023-04-24T00:41:54;11.40;99.90
27226;DHT22;14732;51.074;3.788;2023-04-24T00:44:20;11.20;99.90
27226;DHT22;14732;51.074;3.788;2023-04-24T00:46:47;11.30;99.90
27226;DHT22;14732;51.074;3.788;2023-04-24T00:49:18;11.60;99.90
27226;DHT22;14732;51.074;3.788;2023-04-24T00:51:44;11.50;99.90
27226;DHT22;14732;51.074;3.788;2023-04-24T00:54:12;11.30;99.90
27226;DHT22;14732;51.074;3.788;2023-04-24T00:56:37;11.40;99.90
27226;DHT22;14732;51.074;3.788;2023-04-24T00:59:04;11.30;99.90
27226;DHT22;14732;51.074;3.788;2023-04-24T01:01:30;11.20;99.90
27226;DHT22;14732;51.074;3.788;2023-04-24T01:03:56;11.40;99.90
27226;DHT22;14732;51.074;3.788;2023-04-24T01:06:23;11.20;99.90
27226;DHT22;14732;51.074;3.788;2023-04-24T01:08:52;11.20;99.90
27226;DHT22;14732;51.074;3.788;2023-04-24T01:11:19;11.30;99.90
27226;DHT22;14732;51.074;3.788;2023-04-24T01:13:46;11.30;99.90
27226;DHT22;14732;51.074;3.788;2023-04-24T01:16:12;11.50;99.90
27226;DHT22;14732;51.074;3.788;2023-04-24T01:18:38;11.40;99.90
27226;DHT22;14732;51.074;3.788;2023-04-24T01:21:04;11.30;99.90
27226;DHT22;14732;51.074;3.788;2023-04-24T01:23:31;11.40;99.90
27226;DHT22;14732;51.074;3.788;2023-04-24T01:25:56;11.60;99.90
27226;DHT22;14732;51.074;3.788;2023-04-24T01:28:22;11.30;99.90
27226;DHT22;14732;51.074;3.788;2023-04-24T01:30:48;11.30;99.90
27226;DHT22;14732;51.074;3.788;2023-04-24T01:33:14;11.40;99.90
27226;DHT22;14732;51.074;3.788;2023-04-24T01:35:40;11.20;99.90
27226;DHT22;14732;51.074;3.788;2023-04-24T01:38:06;11.10;99.90
27226;DHT22;14732;51.074;3.788;2023-04-24T01:40:32;11.30;99.90
27226;DHT22;14732;51.074;3.788;2023-04-24T01:42:58;11.30;99.90
27226;DHT22;14732;51.074;3.788;2023-04-24T01:45:24;11.10;99.90
27226;DHT22;14732;51.074;3.788;2023-04-24T01:47:50;11.00;99.90
27226;DHT22;14732;51.074;3.788;2023-04-24T01:50:16;11.00;99.90
27226;DHT22;14732;51.074;3.788;2023-04-24T01:52:42;11.10;99.90
27226;DHT22;14732;51.074;3.788;2023-04-24T01:55:08;11.10;99.90
27226;DHT22;14732;51.074;3.788;2023-04-24T01:57:35;11.00;99.90
27226;DHT22;14732;51.074;3.788;2023-04-24T02:00:02;11.00;99.90
27226;DHT22;14732;51.074;3.788;2023-04-24T02:02:29;11.00;99.90
27226;DHT22;14732;51.074;3.788;2023-04-24T02:04:56;11.00;99.90
27226;DHT22;14732;51.074;3.788;2023-04-24T02:07:21;11.10;99.90
27226;DHT22;14732;51.074;3.788;2023-04-24T02:09:47;11.10;99.90
27226;DHT22;14732;51.074;3.788;2023-04-24T02:12:14;11.20;99.90
27226;DHT22;14732;51.074;3.788;2023-04-24T02:14:40;10.80;99.90
27226;DHT22;14732;51.074;3.788;2023-04-24T02:17:06;10.90;99.90
27226;DHT22;14732;51.074;3.788;2023-04-24T02:19:32;10.80;99.90
27226;DHT22;14732;51.074;3.788;2023-04-24T02:21:57;10.90;99.90
27226;DHT22;14732;51.074;3.788;2023-04-24T02:24:23;10.70;99.90
27226;DHT22;14732;51.074;3.788;2023-04-24T02:26:49;10.60;99.90
27226;DHT22;14732;51.074;3.788;2023-04-24T02:29:14;10.60;99.90
27226;DHT22;14732;51.074;3.788;2023-04-24T02:31:40;10.70;99.90
27226;DHT22;14732;51.074;3.788;2023-04-24T02:34:06;10.60;99.90
27226;DHT22;14732;51.074;3.788;2023-04-24T02:36:31;10.70;99.90
27226;DHT22;14732;51.074;3.788;2023-04-24T02:38:57;10.60;99.90
27226;DHT22;14732;51.074;3.788;2023-04-24T02:41:23;10.60;99.90
27226;DHT22;14732;51.074;3.788;2023-04-24T02:43:48;10.70;99.90
27226;DHT22;14732;51.074;3.788;2023-04-24T02:46:14;10.90;99.90
27226;DHT22;14732;51.074;3.788;2023-04-24T02:48:40;10.80;99.90
27226;DHT22;14732;51.074;3.788;2023-04-24T02:51:06;10.90;99.90
27226;DHT22;14732;51.074;3.788;2023-04-24T02:53:32;10.80;99.90
27226;DHT22;14732;51.074;3.788;2023-04-24T02:55:58;10.80;99.90
27226;DHT22;14732;51.074;3.788;2023-04-24T02:58:24;10.80;99.90
27226;DHT22;14732;51.074;3.788;2023-04-24T03:00:53;10.70;99.90
27226;DHT22;14732;51.074;3.788;2023-04-24T03:03:19;10.50;99.90
27226;DHT22;14732;51.074;3.788;2023-04-24T03:05:45;10.40;99.90
27226;DHT22;14732;51.074;3.788;2023-04-24T03:08:11;10.30;99.90
27226;DHT22;14732;51.074;3.788;2023-04-24T03:10:37;10.30;99.90
27226;DHT22;14732;51.074;3.788;2023-04-24T03:13:02;10.40;99.90
27226;DHT22;14732;51.074;3.788;2023-04-24T03:15:28;10.30;99.90
27226;DHT22;14732;51.074;3.788;2023-04-24T03:17:54;10.20;99.90
27226;DHT22;14732;51.074;3.788;2023-04-24T03:20:20;10.20;99.90
27226;DHT22;14732;51.074;3.788;2023-04-24T03:22:46;10.50;99.90
27226;DHT22;14732;51.074;3.788;2023-04-24T03:25:12;10.40;99.90
27226;DHT22;14732;51.074;3.788;2023-04-24T03:27:38;10.20;99.90
27226;DHT22;14732;51.074;3.788;2023-04-24T03:30:06;10.10;99.90
27226;DHT22;14732;51.074;3.788;2023-04-24T03:32:32;10.00;99.90
27226;DHT22;14732;51.074;3.788;2023-04-24T03:34:57;10.10;99.90
27226;DHT22;14732;51.074;3.788;2023-04-24T03:37:23;10.30;99.90
27226;DHT22;14732;51.074;3.788;2023-04-24T03:39:49;10.30;99.90
27226;DHT22;14732;51.074;3.788;2023-04-24T03:42:14;10.40;99.90
27226;DHT22;14732;51.074;3.788;2023-04-24T03:44:40;10.40;99.90
27226;DHT22;14732;51.074;3.788;2023-04-24T03:47:06;10.30;99.90
27226;DHT22;14732;51.074;3.788;2023-04-24T03:49:31;10.10;99.90
27226;DHT22;14732;51.074;3.788;2023-04-24T03:51:57;10.20;99.90
27226;DHT22;14732;51.074;3.788;2023-04-24T03:54:23;10.30;99.90
27226;DHT22;14732;51.074;3.788;2023-04-24T03:56:48;10.10;99.90
27226;DHT22;14732;51.074;3.788;2023-04-24T03:59:14;9.90;99.90
27226;DHT22;14732;51.074;3.788;2023-04-24T04:01:40;9.90;99.90
27226;DHT22;14732;51.074;3.788;2023-04-24T04:04:06;10.00;99.90
27226;DHT22;14732;51.074;3.788;2023-04-24T04:06:32;10.10;99.90
27226;DHT22;14732;51.074;3.788;2023-04-24T04:08:58;10.20;99.90
27226;DHT22;14732;51.074;3.788;2023-04-24T04:11:24;10.00;99.90
27226;DHT22;14732;51.074;3.788;2023-04-24T04:13:50;9.80;99.90
27226;DHT22;14732;51.074;3.788;2023-04-24T04:16:16;9.70;99.90
27226;DHT22;14732;51.074;3.788;2023-04-24T04:18:43;9.70;99.90
27226;DHT22;14732;51.074;3.788;2023-04-24T04:21:09;9.80;99.90
27226;DHT22;14732;51.074;3.788;2023-04-24T04:23:34;9.80;99.90
27226;DHT22;14732;51.074;3.788;2023-04-24T04:26:00;9.90;99.90
27226;DHT22;14732;51.074;3.788;2023-04-24T04:28:26;9.90;99.90
27226;DHT22;14732;51.074;3.788;2023-04-24T04:30:52;9.80;99.90
27226;DHT22;14732;51.074;3.788;2023-04-24T04:33:21;9.80;99.90
27226;DHT22;14732;51.074;3.788;2023-04-24T04:35:47;9.70;99.90
27226;DHT22;14732;51.074;3.788;2023-04-24T04:38:18;9.80;99.90
27226;DHT22;14732;51.074;3.788;2023-04-24T04:40:44;9.80;99.90
27226;DHT22;14732;51.074;3.788;2023-04-24T04:43:10;9.70;99.90
27226;DHT22;14732;51.074;3.788;2023-04-24T04:45:37;9.70;99.90
27226;DHT22;14732;51.074;3.788;2023-04-24T04:48:04;9.70;99.90
27226;DHT22;14732;51.074;3.788;2023-04-24T04:50:32;9.90;99.90
27226;DHT22;14732;51.074;3.788;2023-04-24T04:52:58;9.90;99.90
27226;DHT22;14732;51.074;3.788;2023-04-24T04:55:24;9.80;99.90
27226;DHT22;14732;51.074;3.788;2023-04-24T04:57:50;9.80;99.90
27226;DHT22;14732;51.074;3.788;2023-04-24T05:00:16;9.90;99.90
27226;DHT22;14732;51.074;3.788;2023-04-24T05:02:42;10.00;99.90
27226;DHT22;14732;51.074;3.788;2023-04-24T05:05:08;10.00;99.90
27226;DHT22;14732;51.074;3.788;2023-04-24T05:07:34;10.00;99.90
27226;DHT22;14732;51.074;3.788;2023-04-24T05:10:00;10.00;99.90
27226;DHT22;14732;51.074;3.788;2023-04-24T05:12:25;9.80;99.90
27226;DHT22;14732;51.074;3.788;2023-04-24T05:14:52;9.80;99.90
27226;DHT22;14732;51.074;3.788;2023-04-24T05:17:18;10.00;99.90
27226;DHT22;14732;51.074;3.788;2023-04-24T05:19:43;10.00;99.90
27226;DHT22;14732;51.074;3.788;2023-04-24T05:22:09;10.00;99.90
27226;DHT22;14732;51.074;3.788;2023-04-24T05:24:36;10.00;99.90
27226;DHT22;14732;51.074;3.788;2023-04-24T05:27:05;9.90;99.90
27226;DHT22;14732;51.074;3.788;2023-04-24T05:29:31;9.80;99.90
27226;DHT22;14732;51.074;3.788;2023-04-24T05:31:58;9.80;99.90
27226;DHT22;14732;51.074;3.788;2023-04-24T05:34:24;10.00;99.90
27226;DHT22;14732;51.074;3.788;2023-04-24T05:36:50;10.10;99.90
27226;DHT22;14732;51.074;3.788;2023-04-24T05:39:16;10.10;99.90
27226;DHT22;14732;51.074;3.788;2023-04-24T05:41:43;10.10;99.90
27226;DHT22;14732;51.074;3.788;2023-04-24T05:44:09;10.20;99.90
27226;DHT22;14732;51.074;3.788;2023-04-24T05:46:35;10.20;99.90
27226;DHT22;14732;51.074;3.788;2023-04-24T05:49:01;10.30;99.90
27226;DHT22;14732;51.074;3.788;2023-04-24T05:51:27;10.20;99.90
27226;DHT22;14732;51.074;3.788;2023-04-24T05:53:53;10.10;99.90
27226;DHT22;14732;51.074;3.788;2023-04-24T05:56:19;10.20;99.90
27226;DHT22;14732;51.074;3.788;2023-04-24T05:58:45;10.30;99.90
27226;DHT22;14732;51.074;3.788;2023-04-24T06:01:12;10.30;99.90
27226;DHT22;14732;51.074;3.788;2023-04-24T06:03:38;10.40;99.90
27226;DHT22;14732;51.074;3.788;2023-04-24T06:06:06;10.50;99.90
27226;DHT22;14732;51.074;3.788;2023-04-24T06:08:31;10.40;99.90
27226;DHT22;14732;51.074;3.788;2023-04-24T06:10:58;10.40;99.90
27226;DHT22;14732;51.074;3.788;2023-04-24T06:13:23;10.30;99.90
27226;DHT22;14732;51.074;3.788;2023-04-24T06:15:50;10.60;99.90
27226;DHT22;14732;51.074;3.788;2023-04-24T06:18:16;10.50;99.90
27226;DHT22;14732;51.074;3.788;2023-04-24T06:20:41;10.40;99.90
27226;DHT22;14732;51.074;3.788;2023-04-24T06:23:07;10.40;99.90
27226;DHT22;14732;51.074;3.788;2023-04-24T06:25:33;10.60;99.90
27226;DHT22;14732;51.074;3.788;2023-04-24T06:27:58;10.60;99.90
27226;DHT22;14732;51.074;3.788;2023-04-24T06:30:24;10.50;99.90
27226;DHT22;14732;51.074;3.788;2023-04-24T06:32:50;10.40;99.90
27226;DHT22;14732;51.074;3.788;2023-04-24T06:35:16;10.60;99.90
27226;DHT22;14732;51.074;3.788;2023-04-24T06:37:42;10.50;99.90
27226;DHT22;14732;51.074;3.788;2023-04-24T06:40:09;10.40;99.90
27226;DHT22;14732;51.074;3.788;2023-04-24T06:42:35;10.80;99.90
27226;DHT22;14732;51.074;3.788;2023-04-24T06:45:01;11.00;99.90
27226;DHT22;14732;51.074;3.788;2023-04-24T06:47:27;10.80;99.90
27226;DHT22;14732;51.074;3.788;2023-04-24T06:49:53;10.90;99.90
27226;DHT22;14732;51.074;3.788;2023-04-24T06:52:19;10.80;99.90
27226;DHT22;14732;51.074;3.788;2023-04-24T06:54:45;10.80;99.90
27226;DHT22;14732;51.074;3.788;2023-04-24T06:57:11;10.80;99.90
27226;DHT22;14732;51.074;3.788;2023-04-24T06:59:37;11.00;99.90
27226;DHT22;14732;51.074;3.788;2023-04-24T07:02:03;10.90;99.90
27226;DHT22;14732;51.074;3.788;2023-04-24T07:04:29;11.00;99.90
27226;DHT22;14732;51.074;3.788;2023-04-24T07:06:55;11.20;99.90
27226;DHT22;14732;51.074;3.788;2023-04-24T07:09:23;11.00;99.90
27226;DHT22;14732;51.074;3.788;2023-04-24T07:11:51;10.90;99.90
27226;DHT22;14732;51.074;3.788;2023-04-24T07:14:17;11.00;99.90
27226;DHT22;14732;51.074;3.788;2023-04-24T07:16:43;11.00;99.90
27226;DHT22;14732;51.074;3.788;2023-04-24T07:19:09;11.00;99.90
27226;DHT22;14732;51.074;3.788;2023-04-24T07:21:35;11.20;99.90
27226;DHT22;14732;51.074;3.788;2023-04-24T07:24:01;11.00;99.90
27226;DHT22;14732;51.074;3.788;2023-04-24T07:26:29;11.20;99.90
27226;DHT22;14732;51.074;3.788;2023-04-24T07:28:54;11.20;99.90
27226;DHT22;14732;51.074;3.788;2023-04-24T07:31:20;11.30;99.90
27226;DHT22;14732;51.074;3.788;2023-04-24T07:33:47;11.60;99.90
27226;DHT22;14732;51.074;3.788;2023-04-24T07:36:13;11.90;99.90
27226;DHT22;14732;51.074;3.788;2023-04-24T07:38:42;12.10;99.90
27226;DHT22;14732;51.074;3.788;2023-04-24T07:41:08;12.30;99.90
27226;DHT22;14732;51.074;3.788;2023-04-24T07:43:35;12.40;99.90
27226;DHT22;14732;51.074;3.788;2023-04-24T07:46:00;12.60;99.90
27226;DHT22;14732;51.074;3.788;2023-04-24T07:48:26;12.00;99.90
27226;DHT22;14732;51.074;3.788;2023-04-24T07:50:53;11.70;99.90
27226;DHT22;14732;51.074;3.788;2023-04-24T07:53:18;11.80;99.90
27226;DHT22;14732;51.074;3.788;2023-04-24T07:55:44;11.80;99.90
27226;DHT22;14732;51.074;3.788;2023-04-24T07:58:09;11.60;99.90
27226;DHT22;14732;51.074;3.788;2023-04-24T08:00:35;11.20;99.90
27226;DHT22;14732;51.074;3.788;2023-04-24T08:03:01;11.50;99.90
27226;DHT22;14732;51.074;3.788;2023-04-24T08:05:27;11.40;99.90
27226;DHT22;14732;51.074;3.788;2023-04-24T08:07:54;11.50;99.90
27226;DHT22;14732;51.074;3.788;2023-04-24T08:10:24;11.40;99.90
27226;DHT22;14732;51.074;3.788;2023-04-24T08:12:49;11.70;99.90
27226;DHT22;14732;51.074;3.788;2023-04-24T08:15:15;12.30;99.90
27226;DHT22;14732;51.074;3.788;2023-04-24T08:17:41;12.60;99.90
27226;DHT22;14732;51.074;3.788;2023-04-24T08:20:07;13.10;99.90
27226;DHT22;14732;51.074;3.788;2023-04-24T08:22:39;13.90;99.90
27226;DHT22;14732;51.074;3.788;2023-04-24T08:25:05;14.60;99.90
27226;DHT22;14732;51.074;3.788;2023-04-24T08:27:31;14.40;99.90
27226;DHT22;14732;51.074;3.788;2023-04-24T08:29:57;14.30;99.90
27226;DHT22;14732;51.074;3.788;2023-04-24T08:32:24;13.90;99.90
27226;DHT22;14732;51.074;3.788;2023-04-24T08:34:49;13.40;99.90
27226;DHT22;14732;51.074;3.788;2023-04-24T08:37:18;13.30;99.90
27226;DHT22;14732;51.074;3.788;2023-04-24T08:39:44;13.00;99.90
27226;DHT22;14732;51.074;3.788;2023-04-24T08:42:11;13.10;99.90
27226;DHT22;14732;51.074;3.788;2023-04-24T08:44:38;13.20;99.90
27226;DHT22;14732;51.074;3.788;2023-04-24T08:47:04;13.00;99.90
27226;DHT22;14732;51.074;3.788;2023-04-24T08:49:31;13.00;99.90
27226;DHT22;14732;51.074;3.788;2023-04-24T08:51:57;12.90;99.90
27226;DHT22;14732;51.074;3.788;2023-04-24T08:54:22;13.00;99.90
27226;DHT22;14732;51.074;3.788;2023-04-24T08:56:48;13.70;99.90
27226;DHT22;14732;51.074;3.788;2023-04-24T08:59:15;14.10;99.90
27226;DHT22;14732;51.074;3.788;2023-04-24T09:01:41;13.80;99.90
27226;DHT22;14732;51.074;3.788;2023-04-24T09:04:09;13.60;99.90
27226;DHT22;14732;51.074;3.788;2023-04-24T09:06:36;13.60;99.90
27226;DHT22;14732;51.074;3.788;2023-04-24T09:09:02;13.50;99.90
27226;DHT22;14732;51.074;3.788;2023-04-24T09:11:30;13.30;99.90
27226;DHT22;14732;51.074;3.788;2023-04-24T09:13:57;13.20;99.90
27226;DHT22;14732;51.074;3.788;2023-04-24T09:16:25;13.10;99.90
27226;DHT22;14732;51.074;3.788;2023-04-24T09:18:51;12.60;99.90
27226;DHT22;14732;51.074;3.788;2023-04-24T09:21:16;12.40;99.90
27226;DHT22;14732;51.074;3.788;2023-04-24T09:23:42;12.50;99.90
27226;DHT22;14732;51.074;3.788;2023-04-24T09:26:09;12.60;99.90
27226;DHT22;14732;51.074;3.788;2023-04-24T09:28:37;12.90;99.90
27226;DHT22;14732;51.074;3.788;2023-04-24T09:33:32;12.40;99.90
27226;DHT22;14732;51.074;3.788;2023-04-24T09:35:58;12.50;99.90
27226;DHT22;14732;51.074;3.788;2023-04-24T09:38:35;12.60;99.90
27226;DHT22;14732;51.074;3.788;2023-04-24T09:41:03;13.00;99.90
27226;DHT22;14732;51.074;3.788;2023-04-24T09:43:30;13.20;99.90
27226;DHT22;14732;51.074;3.788;2023-04-24T09:45:57;13.20;99.90
27226;DHT22;14732;51.074;3.788;2023-04-24T09:48:34;13.30;99.90
27226;DHT22;14732;51.074;3.788;2023-04-24T09:51:05;13.30;99.90
27226;DHT22;14732;51.074;3.788;2023-04-24T09:53:37;13.50;99.90
27226;DHT22;14732;51.074;3.788;2023-04-24T09:56:11;13.70;99.90
27226;DHT22;14732;51.074;3.788;2023-04-24T09:58:40;13.80;99.90
27226;DHT22;14732;51.074;3.788;2023-04-24T10:01:05;13.60;99.90
27226;DHT22;14732;51.074;3.788;2023-04-24T10:03:32;13.50;99.90
27226;DHT22;14732;51.074;3.788;2023-04-24T10:05:59;13.70;99.90
27226;DHT22;14732;51.074;3.788;2023-04-24T10:08:25;14.00;99.90
27226;DHT22;14732;51.074;3.788;2023-04-24T10:10:52;14.10;99.90
27226;DHT22;14732;51.074;3.788;2023-04-24T10:13:18;14.30;99.90
27226;DHT22;14732;51.074;3.788;2023-04-24T10:15:44;14.20;99.90
27226;DHT22;14732;51.074;3.788;2023-04-24T10:18:12;14.00;99.90
27226;DHT22;14732;51.074;3.788;2023-04-24T10:20:39;14.30;99.90
27226;DHT22;14732;51.074;3.788;2023-04-24T10:23:05;14.60;99.90
27226;DHT22;14732;51.074;3.788;2023-04-24T10:25:34;14.70;99.90
27226;DHT22;14732;51.074;3.788;2023-04-24T10:28:01;14.10;99.90
27226;DHT22;14732;51.074;3.788;2023-04-24T10:30:29;14.30;99.90
27226;DHT22;14732;51.074;3.788;2023-04-24T10:32:55;14.10;99.90
27226;DHT22;14732;51.074;3.788;2023-04-24T10:35:22;14.00;99.90
27226;DHT22;14732;51.074;3.788;2023-04-24T10:46:05;14.40;99.90
27226;DHT22;14732;51.074;3.788;2023-04-24T10:48:34;14.10;99.90
27226;DHT22;14732;51.074;3.788;2023-04-24T10:51:44;14.10;99.90
27226;DHT22;14732;51.074;3.788;2023-04-24T10:54:42;14.20;99.90
27226;DHT22;14732;51.074;3.788;2023-04-24T10:57:34;14.10;99.90
27226;DHT22;14732;51.074;3.788;2023-04-24T11:00:21;14.00;99.90
27226;DHT22;14732;51.074;3.788;2023-04-24T11:02:55;14.20;99.90
27226;DHT22;14732;51.074;3.788;2023-04-24T11:31:37;14.30;99.90
27226;DHT22;14732;51.074;3.788;2023-04-24T11:44:53;14.80;99.90
27226;DHT22;14732;51.074;3.788;2023-04-24T11:47:31;15.10;99.90
27226;DHT22;14732;51.074;3.788;2023-04-24T12:01:04;15.20;99.90
27226;DHT22;14732;51.074;3.788;2023-04-24T12:03:37;15.00;99.90
27226;DHT22;14732;51.074;3.788;2023-04-24T12:13:43;14.90;99.90
27226;DHT22;14732;51.074;3.788;2023-04-24T12:16:33;14.80;99.90
27226;DHT22;14732;51.074;3.788;2023-04-24T12:19:02;14.70;99.90
27226;DHT22;14732;51.074;3.788;2023-04-24T12:25:04;14.80;99.90
27226;DHT22;14732;51.074;3.788;2023-04-24T12:27:43;15.10;99.90
27226;DHT22;14732;51.074;3.788;2023-04-24T12:30:14;14.80;99.90
27226;DHT22;14732;51.074;3.788;2023-04-24T12:32:42;14.70;99.90
27226;DHT22;14732;51.074;3.788;2023-04-24T12:45:12;14.90;99.90
27226;DHT22;14732;51.074;3.788;2023-04-24T12:47:42;14.60;99.90
27226;DHT22;14732;51.074;3.788;2023-04-24T12:51:23;14.80;99.90
27226;DHT22;14732;51.074;3.788;2023-04-24T13:25:30;15.70;99.90
27226;DHT22;14732;51.074;3.788;2023-04-24T13:27:57;15.60;99.90
27226;DHT22;14732;51.074;3.788;2023-04-24T13:30:25;15.30;99.90
27226;DHT22;14732;51.074;3.788;2023-04-24T13:32:53;15.30;99.90
27226;DHT22;14732;51.074;3.788;2023-04-24T13:35:21;14.90;99.90
27226;DHT22;14732;51.074;3.788;2023-04-24T13:41:41;14.60;99.90
27226;DHT22;14732;51.074;3.788;2023-04-24T13:44:40;14.40;99.90
27226;DHT22;14732;51.074;3.788;2023-04-24T13:47:37;14.30;99.90
27226;DHT22;14732;51.074;3.788;2023-04-24T13:51:32;14.30;99.90
27226;DHT22;14732;51.074;3.788;2023-04-24T13:54:37;14.60;99.90
27226;DHT22;14732;51.074;3.788;2023-04-24T14:02:24;15.00;99.90
27226;DHT22;14732;51.074;3.788;2023-04-24T14:12:31;14.20;99.90
27226;DHT22;14732;51.074;3.788;2023-04-24T14:15:39;14.30;99.90
27226;DHT22;14732;51.074;3.788;2023-04-24T14:18:09;14.60;99.90
27226;DHT22;14732;51.074;3.788;2023-04-24T14:28:27;15.00;99.90
27226;DHT22;14732;51.074;3.788;2023-04-24T14:32:35;14.70;99.90
27226;DHT22;14732;51.074;3.788;2023-04-24T14:35:49;14.60;99.90
27226;DHT22;14732;51.074;3.788;2023-04-24T14:39:23;14.80;99.90
27226;DHT22;14732;51.074;3.788;2023-04-24T14:42:28;15.20;99.90
27226;DHT22;14732;51.074;3.788;2023-04-24T14:44:56;15.40;99.90
27226;DHT22;14732;51.074;3.788;2023-04-24T14:47:23;15.40;99.90
27226;DHT22;14732;51.074;3.788;2023-04-24T14:49:52;15.40;99.90
27226;DHT22;14732;51.074;3.788;2023-04-24T14:52:19;15.20;99.90
27226;DHT22;14732;51.074;3.788;2023-04-24T14:55:27;15.20;99.90
27226;DHT22;14732;51.074;3.788;2023-04-24T14:59:33;15.10;99.90
27226;DHT22;14732;51.074;3.788;2023-04-24T15:02:34;15.30;99.90
27226;DHT22;14732;51.074;3.788;2023-04-24T15:05:04;15.50;99.90
27226;DHT22;14732;51.074;3.788;2023-04-24T15:14:28;15.40;99.90
27226;DHT22;14732;51.074;3.788;2023-04-24T15:16:55;15.30;99.90
27226;DHT22;14732;51.074;3.788;2023-04-24T15:20:37;15.20;99.90
27226;DHT22;14732;51.074;3.788;2023-04-24T15:27:18;15.10;99.90
27226;DHT22;14732;51.074;3.788;2023-04-24T15:30:03;15.10;99.90
27226;DHT22;14732;51.074;3.788;2023-04-24T15:32:30;15.30;99.90
27226;DHT22;14732;51.074;3.788;2023-04-24T15:35:59;15.50;99.90
27226;DHT22;14732;51.074;3.788;2023-04-24T15:39:17;15.70;99.90
27226;DHT22;14732;51.074;3.788;2023-04-24T15:45:27;15.70;99.90
27226;DHT22;14732;51.074;3.788;2023-04-24T15:48:05;15.30;99.90
27226;DHT22;14732;51.074;3.788;2023-04-24T15:50:35;14.90;99.90
27226;DHT22;14732;51.074;3.788;2023-04-24T15:53:27;15.00;99.90
27226;DHT22;14732;51.074;3.788;2023-04-24T15:56:12;15.00;99.90
27226;DHT22;14732;51.074;3.788;2023-04-24T15:59:02;15.20;99.90
27226;DHT22;14732;51.074;3.788;2023-04-24T16:01:30;15.00;99.90
27226;DHT22;14732;51.074;3.788;2023-04-24T16:03:57;15.40;99.90
27226;DHT22;14732;51.074;3.788;2023-04-24T16:13:21;15.30;99.90
27226;DHT22;14732;51.074;3.788;2023-04-24T16:15:48;15.20;99.90
27226;DHT22;14732;51.074;3.788;2023-04-24T16:18:17;15.10;99.90
27226;DHT22;14732;51.074;3.788;2023-04-24T16:20:45;15.20;99.90
27226;DHT22;14732;51.074;3.788;2023-04-24T16:26:35;14.90;99.90
27226;DHT22;14732;51.074;3.788;2023-04-24T16:29:04;14.80;99.90
27226;DHT22;14732;51.074;3.788;2023-04-24T16:31:31;14.60;99.90
27226;DHT22;14732;51.074;3.788;2023-04-24T16:34:00;14.40;99.90
27226;DHT22;14732;51.074;3.788;2023-04-24T16:40:18;14.40;99.90
27226;DHT22;14732;51.074;3.788;2023-04-24T16:47:09;13.90;99.90
27226;DHT22;14732;51.074;3.788;2023-04-24T16:49:42;14.10;99.90
27226;DHT22;14732;51.074;3.788;2023-04-24T16:52:13;14.30;99.90
27226;DHT22;14732;51.074;3.788;2023-04-24T16:55:37;14.20;99.90
27226;DHT22;14732;51.074;3.788;2023-04-24T16:58:22;14.20;99.90
27226;DHT22;14732;51.074;3.788;2023-04-24T17:00:50;14.30;99.90
27226;DHT22;14732;51.074;3.788;2023-04-24T17:03:17;14.50;99.90
27226;DHT22;14732;51.074;3.788;2023-04-24T17:06:55;14.60;99.90
27226;DHT22;14732;51.074;3.788;2023-04-24T17:20:12;14.10;99.90
27226;DHT22;14732;51.074;3.788;2023-04-24T17:23:31;14.00;99.90
27226;DHT22;14732;51.074;3.788;2023-04-24T17:29:39;14.10;99.90
27226;DHT22;14732;51.074;3.788;2023-04-24T17:32:07;14.50;99.90
27226;DHT22;14732;51.074;3.788;2023-04-24T17:35:31;14.60;99.90
27226;DHT22;14732;51.074;3.788;2023-04-24T18:00:37;13.70;99.90
27226;DHT22;14732;51.074;3.788;2023-04-24T18:03:07;13.60;99.90
27226;DHT22;14732;51.074;3.788;2023-04-24T18:06:33;13.60;99.90
27226;DHT22;14732;51.074;3.788;2023-04-24T18:10:09;13.40;99.90
27226;DHT22;14732;51.074;3.788;2023-04-24T18:12:51;13.10;99.90
27226;DHT22;14732;51.074;3.788;2023-04-24T18:15:20;13.00;99.90
27226;DHT22;14732;51.074;3.788;2023-04-24T18:17:48;12.90;99.90
27226;DHT22;14732;51.074;3.788;2023-04-24T18:21:29;12.80;99.90
27226;DHT22;14732;51.074;3.788;2023-04-24T18:25:16;13.00;99.90
27226;DHT22;14732;51.074;3.788;2023-04-24T18:28:43;13.10;99.90
27226;DHT22;14732;51.074;3.788;2023-04-24T18:31:31;13.30;99.90
27226;DHT22;14732;51.074;3.788;2023-04-24T18:33:59;13.10;99.90
27226;DHT22;14732;51.074;3.788;2023-04-24T18:40:04;12.90;99.90
27226;DHT22;14732;51.074;3.788;2023-04-24T18:42:30;13.00;99.90
27226;DHT22;14732;51.074;3.788;2023-04-24T18:44:55;13.00;99.90
27226;DHT22;14732;51.074;3.788;2023-04-24T18:47:26;13.00;99.90
27226;DHT22;14732;51.074;3.788;2023-04-24T18:49:52;13.10;99.90
27226;DHT22;14732;51.074;3.788;2023-04-24T18:52:18;13.00;99.90
27226;DHT22;14732;51.074;3.788;2023-04-24T18:54:44;12.90;99.90
27226;DHT22;14732;51.074;3.788;2023-04-24T18:57:10;12.80;99.90
27226;DHT22;14732;51.074;3.788;2023-04-24T18:59:35;12.70;99.90
27226;DHT22;14732;51.074;3.788;2023-04-24T19:02:01;12.70;99.90
27226;DHT22;14732;51.074;3.788;2023-04-24T19:04:28;12.70;99.90
27226;DHT22;14732;51.074;3.788;2023-04-24T19:06:54;12.70;99.90
27226;DHT22;14732;51.074;3.788;2023-04-24T19:09:19;12.70;99.90
27226;DHT22;14732;51.074;3.788;2023-04-24T19:11:45;12.70;99.90
27226;DHT22;14732;51.074;3.788;2023-04-24T19:14:12;12.70;99.90
27226;DHT22;14732;51.074;3.788;2023-04-24T19:16:38;12.60;99.90
27226;DHT22;14732;51.074;3.788;2023-04-24T19:19:04;12.50;99.90
27226;DHT22;14732;51.074;3.788;2023-04-24T19:21:29;12.40;99.90
27226;DHT22;14732;51.074;3.788;2023-04-24T19:23:56;12.40;99.90
27226;DHT22;14732;51.074;3.788;2023-04-24T19:26:22;12.40;99.90
27226;DHT22;14732;51.074;3.788;2023-04-24T19:28:48;12.30;99.90